Nash, Texas
Current Conditions -  °F | °C
As of 10:53 AM on Thursday 23 Oct 2014 (Local Time) from KTXK Reporting Station
Clear Clear  
Wind Chill: 56°   Ceiling: Unl
Heat Index: 56°   Visibility: 9mi
Dew Point: 50°   Wind: 3mph
Humidity: 80%   Direction: 60°ENE
Pressure: 30.21"   Gusts: NA
Location:  33.44°N, 94.13°W
Report Text: KTXK 231553Z 06003KT 9SM CLR 13/10 A3021 RMK AO2 SLP227 T01330100
Loading
Personal Weather Stations






























Interactive Weather Map
Tropical Storm Tracking
New forecast layout! Learn more

10-Day Weather Forecast

Advertisements
Track Severe Weather on mobile